Sunday, March 29, 2015
10:39 UTC
  |  Log In   |  Register Free
Airport Search:

Enid Woodring Regional Airport
(KWDG)

FAA data valid effective March 05, 2015 - April 30, 2015 (unless otherwise noted).

 
 
 
 
 
 
 
 
 
 
 
 
 
 

Current Aviation Weather for Enid Woodring Regional Airport (KWDG)

The most recent METAR observation for KWDG was updated at: 1415
METAR Summary (Translated METAR)
KWDG
251350Z 07010KT 05SM HZ SCT019 OVC023 13/06 A2986
KEND
251356Z 08009KT 7SM BKN014 OVC200 13/08 A2985 RMK AO2A SLP106 FU ALL QUADS
(6.6 nm SW from KWDG)
KBKN
161915Z AUTO 19018G23KT 10SM CLR 16/M06 A3008 RMK AO2
(30.6 nm NE from KWDG)
TAF Summary (Translated TAF)
KEND
(6.6 nm SW from KWDG)
2513/2616 10009KT 9999 BKN013 BKN200 QNH2982INS BECMG 2514/2515 11010G15KT 9999 BKN020 QNH2969INS BECMG 2520/2521 18020G25KT 6000 -SHRA BKN030 520305 QNH2972INS TEMPO 2523/2601 18030G42KT 4800 TSRA OVC020CB BECMG 2602/2603 01025G35KT 6000 -SHRA BKN015 520005 QNH2989INS BECMG 2605/2606 35015G20KT 6000 -SHRA BKN006 QNH3008INS BECMG 2611/2612 35010G15KT 9999 NSW BKN090 QNH3018INS BECMG 2614/2615 36020G25KT 9999 SKC QNH3026INS TX22/2521Z TN05/2609Z AMD 251310
  Airport Weather Conditions for KWDG

 Current Weather at WDG
48° F
Fair
South winds at 10.4 mph
WDG NOAA Radar

Pressure: 29.89 in
Humidity: 87%
Wind: South at 10.4 MPH (9 KT)
Dew Point: 44.6°F
Visibility: 10.00 mi


Airport Weather Forecast for KWDG

Translated METAR and TAF for KWDG
Translated METAR for KWDG (1038 UTC 29 March 2015)
found at http://aviationweather.gov/adds/metars/
 
METAR text: KWDG 291015Z AUTO 16008KT 10SM CLR 08/07 A2987 RMK AO2
Conditions at: KWDG (ENID/WOODRING , OK, US) observed 1015 UTC 29 March 2015
Temperature: 8.0°C (46°F)
Dewpoint: 7.0°C (45°F) [RH = 93%]
Pressure (altimeter): 29.87 inches Hg (1011.6 mb)
Winds: from the SSE (160 degrees) at 9 MPH (8 knots; 4.2 m/s)
Visibility: 10 or more miles (16+ km)
Ceiling: at least 12,000 feet AGL
Clouds: sky clear below 12,000 feet AGL
Weather: automated observation with no human augmentation;
there may or may not be significant weather present at this time
Translated TAF for KWDG

There is no translated TAF available for this airport

Find All Airport Services Find A Hotel Find A Rental Car Find A Golf Course Find A Restaurant $100 Hamburger



FBO's on the Field
FBO Company Facility Photos Services Transportation Aviation Fuel Prices: Prices include tax
Catering Weather Repair Courtesy Rental Type 100LL JetA JetA+ MOGAS 8087
 
Enid Woodring Regional Airport

This FBO has not yet been rated
FS:Phillips 66
Last Updated: Mar-04
Login to update fuel prices
SS:
Contact Enid Woodring Regional AirportMore FBO Information
 
Add another FBO Facility Photos Catering Weather Repair Courtesy Rental Type 100LL JetA JetA+ MOGAS 8087
Services Transportation Aviation Fuel Prices: Prices include tax


model-print
model-print
model-print
model-print